Argonne, South Dakota
Current Conditions -  °F | °C
As of 8:35 AM on Wednesday 22 Oct 2014 (Local Time) from KMDS Reporting Station
Clear Clear  
Wind Chill: 50°   Ceiling: Unl
Heat Index: 50°   Visibility: 10mi
Dew Point: 45°   Wind: 16mph
Humidity: 82%   Direction: 160°SSE
Pressure: 29.95"   Gusts: 23mph
Location:  44.0529°N, 97.5161°W
Report Text: KMDS 221335Z AUTO 16014G20KT 10SM CLR 10/07 A2995 RMK AO2
Loading
Personal Weather Stations






























Interactive Weather Map New forecast layout! Learn more

10-Day Weather Forecast

Advertisements
Track Severe Weather on mobile